KOLF/OLF METAR and TAF weather

Enter ICAO airport designator
Station Type Date Time Source
KOLF METAR 2022/06/27 17:53 UTC NOAA

KOLF 271753Z AUTO 00000KT 10SM CLR 28/01 A3016 RMK AO2 SLP207 T02780011 10278 20067 56010


Station Type Date Time Source
KOLF Decoded METAR 2022/06/27 17:53 UTC NOAA

WOLF POINT CLAYTON AIRPORT, MT, United States (KOLF) 48-06N 105-35W 604M
Jun 27, 2022 - 01:53 PM EDT / 2022.06.27 1753 UTC
Wind: Calm:0
Visibility: 10 mile(s):0
Sky conditions: clear
Temperature: 82.0 F (27.8 C)
Dew Point: 34.0 F (1.1 C)
Relative Humidity: 17%
Pressure (altimeter): 30.16 in. Hg (1021 hPa)
Pressure tendency: 0.03 inches (1.0 hPa) lower than three hours ago
ob: KOLF 271753Z AUTO 00000KT 10SM CLR 28/01 A3016 RMK AO2 SLP207 T02780011 10278 20067 56010
cycle: 18

Station Type Date Time Source
KOLF TAF 2022/06/27 18:22 UTC NOAA

TAF KOLF 271720Z 2718/2818 28010KT P6SM SKC
FM280000 32010KT P6SM FEW120
FM280400 04010KT P6SM FEW250
FM281500 08015KT P6SM FEW100

Example: see airport list